createdAt,value
2022-10-25T00:00:59.027Z,11.60
2022-10-25T00:03:26.284Z,11.60
2022-10-25T00:05:53.504Z,11.50
2022-10-25T00:08:20.781Z,11.40
2022-10-25T00:10:48.204Z,11.50
2022-10-25T00:13:15.412Z,11.30
2022-10-25T00:15:43.359Z,11.30
2022-10-25T00:18:10.736Z,11.30
2022-10-25T00:20:38.487Z,11.20
2022-10-25T00:23:05.849Z,11.10
2022-10-25T00:25:33.092Z,11.10
2022-10-25T00:28:00.432Z,11.10
2022-10-25T00:30:27.817Z,11.10
2022-10-25T00:32:55.031Z,11.00
2022-10-25T00:35:22.439Z,11.00
2022-10-25T00:37:50.489Z,10.90
2022-10-25T00:40:18.560Z,11.00
2022-10-25T00:42:46.102Z,10.90
2022-10-25T00:45:25.551Z,10.80
2022-10-25T00:48:03.484Z,10.80
2022-10-25T00:50:47.845Z,10.80
2022-10-25T00:53:20.072Z,10.70
2022-10-25T00:56:01.993Z,10.70
2022-10-25T00:58:33.737Z,10.60
2022-10-25T01:01:02.153Z,10.50
2022-10-25T01:03:29.443Z,10.50
2022-10-25T01:05:59.597Z,10.40
2022-10-25T01:08:26.949Z,10.30
2022-10-25T01:10:54.163Z,10.30
2022-10-25T01:13:21.476Z,10.30
2022-10-25T01:15:57.553Z,10.30
2022-10-25T01:18:49.959Z,10.30
2022-10-25T01:21:42.088Z,10.20
2022-10-25T01:24:42.918Z,10.10
2022-10-25T01:27:34.952Z,10.20
2022-10-25T01:30:20.308Z,10.20
2022-10-25T01:33:17.656Z,10.20
2022-10-25T01:35:55.264Z,10.20
2022-10-25T01:38:41.465Z,10.20
2022-10-25T01:41:22.944Z,10.20
2022-10-25T01:43:56.332Z,10.20
2022-10-25T01:46:39.649Z,10.20
2022-10-25T01:49:14.350Z,10.10
2022-10-25T01:51:41.532Z,10.10
2022-10-25T01:54:25.684Z,10.10
2022-10-25T01:57:11.554Z,10.10
2022-10-25T02:00:03.265Z,10.10
2022-10-25T02:02:54.870Z,10.20
2022-10-25T02:05:36.088Z,10.30
2022-10-25T02:08:18.872Z,10.30
2022-10-25T02:11:04.341Z,10.30
2022-10-25T02:13:56.721Z,10.30
2022-10-25T02:16:31.045Z,10.40
2022-10-25T02:19:04.220Z,10.40
2022-10-25T02:21:33.782Z,10.30
2022-10-25T02:24:07.668Z,10.30
2022-10-25T02:26:36.228Z,10.30
2022-10-25T02:29:06.148Z,10.40
2022-10-25T02:31:36.454Z,10.40
2022-10-25T02:34:04.205Z,10.40
2022-10-25T02:36:31.593Z,10.40
2022-10-25T02:38:59.968Z,10.30
2022-10-25T02:41:27.276Z,10.40
2022-10-25T02:43:54.629Z,10.40
2022-10-25T02:46:23.853Z,10.40
2022-10-25T02:48:51.610Z,10.40
2022-10-25T02:51:20.232Z,10.40
2022-10-25T02:53:47.859Z,10.50
2022-10-25T02:56:17.858Z,10.50
2022-10-25T02:58:46.556Z,10.60
2022-10-25T03:01:14.891Z,10.70
2022-10-25T03:03:42.459Z,10.80
2022-10-25T03:06:10.657Z,10.80
2022-10-25T03:08:39.569Z,10.90
2022-10-25T03:11:08.643Z,10.90
2022-10-25T03:13:36.570Z,11.00
2022-10-25T03:16:04.429Z,11.00
2022-10-25T03:18:31.872Z,11.00
2022-10-25T03:21:00.880Z,11.10
2022-10-25T03:23:28.492Z,11.10
2022-10-25T03:25:57.477Z,11.00
2022-10-25T03:28:27.401Z,11.10
2022-10-25T03:30:55.797Z,11.20
2022-10-25T03:33:23.714Z,11.30
2022-10-25T03:35:54.945Z,11.30
2022-10-25T03:38:22.518Z,11.30
2022-10-25T03:40:49.936Z,11.40
2022-10-25T03:43:17.236Z,11.40
2022-10-25T03:45:44.837Z,11.40
2022-10-25T03:48:12.373Z,11.40
2022-10-25T03:50:39.802Z,11.40
2022-10-25T03:55:34.996Z,11.40
2022-10-25T03:58:02.497Z,11.50
2022-10-25T04:00:30.011Z,11.40
2022-10-25T04:03:01.998Z,11.40
2022-10-25T04:05:30.951Z,11.40
2022-10-25T04:07:59.038Z,11.40
2022-10-25T04:10:26.939Z,11.50
2022-10-25T04:12:54.996Z,11.50
2022-10-25T04:15:23.443Z,11.50
2022-10-25T04:17:52.350Z,11.60
2022-10-25T04:20:20.267Z,11.60
2022-10-25T04:22:57.629Z,11.60
2022-10-25T04:25:26.987Z,11.60
2022-10-25T04:27:54.870Z,11.60
2022-10-25T04:30:22.283Z,11.60
2022-10-25T04:32:50.041Z,11.70
2022-10-25T04:35:17.976Z,11.60
2022-10-25T04:37:45.351Z,11.60
2022-10-25T04:40:12.817Z,11.50
2022-10-25T04:42:40.066Z,11.50
2022-10-25T04:45:07.721Z,11.40
2022-10-25T04:47:35.119Z,11.30
2022-10-25T04:50:02.391Z,11.30
2022-10-25T04:52:30.472Z,11.30
2022-10-25T04:54:58.087Z,11.20
2022-10-25T04:57:25.902Z,11.20
2022-10-25T04:59:53.414Z,11.10
2022-10-25T05:02:20.643Z,11.20
2022-10-25T05:04:47.895Z,11.10
2022-10-25T05:07:19.295Z,11.10
2022-10-25T05:09:47.655Z,11.10
2022-10-25T05:12:15.385Z,11.10
2022-10-25T05:14:42.671Z,11.10
2022-10-25T05:17:10.067Z,11.10
2022-10-25T05:19:37.268Z,11.00
2022-10-25T05:22:04.522Z,11.10
2022-10-25T05:24:31.802Z,11.10
2022-10-25T05:26:58.962Z,11.10
2022-10-25T05:29:26.515Z,11.30
2022-10-25T05:31:53.805Z,11.20
2022-10-25T05:34:21.086Z,11.20
2022-10-25T05:36:48.290Z,11.20
2022-10-25T05:39:15.658Z,11.30
2022-10-25T05:41:42.905Z,11.30
2022-10-25T05:44:10.432Z,11.30
2022-10-25T05:46:37.616Z,11.30
2022-10-25T05:49:05.004Z,11.30
2022-10-25T05:51:35.314Z,11.40
2022-10-25T05:54:05.229Z,11.40
2022-10-25T05:56:33.144Z,11.40
2022-10-25T05:59:12.752Z,11.40
2022-10-25T06:01:45.595Z,11.50
2022-10-25T06:04:13.892Z,11.50
2022-10-25T06:06:44.792Z,11.60
2022-10-25T06:09:13.384Z,11.60
2022-10-25T06:11:40.633Z,11.60
2022-10-25T06:14:10.193Z,11.70
2022-10-25T06:16:38.019Z,11.70
2022-10-25T06:19:05.217Z,11.70
2022-10-25T06:21:32.409Z,11.70
2022-10-25T06:24:00.173Z,11.80
2022-10-25T06:26:30.157Z,11.80
2022-10-25T06:29:00.000Z,11.80
2022-10-25T06:31:28.359Z,11.80
2022-10-25T06:33:55.727Z,11.80
2022-10-25T06:36:24.342Z,11.80
2022-10-25T06:38:52.096Z,11.90
2022-10-25T06:41:25.275Z,11.90
2022-10-25T06:43:52.636Z,11.90
2022-10-25T06:46:27.336Z,11.90
2022-10-25T06:48:56.683Z,11.90
2022-10-25T06:51:25.258Z,11.90
2022-10-25T06:54:01.025Z,12.00
2022-10-25T06:56:29.109Z,12.00
2022-10-25T06:58:56.825Z,12.00
2022-10-25T07:01:26.100Z,12.10
2022-10-25T07:03:54.959Z,12.10
2022-10-25T07:06:35.283Z,12.20
2022-10-25T07:09:02.604Z,12.20
2022-10-25T07:11:31.724Z,12.30
2022-10-25T07:14:00.791Z,12.30
2022-10-25T07:16:28.889Z,12.30
2022-10-25T07:19:03.596Z,12.40
2022-10-25T07:21:32.761Z,12.50
2022-10-25T07:24:00.302Z,12.60
2022-10-25T07:26:33.376Z,12.60
2022-10-25T07:29:02.221Z,12.70
2022-10-25T07:31:33.082Z,12.80
2022-10-25T07:34:02.515Z,12.80
2022-10-25T07:36:29.962Z,12.90
2022-10-25T07:38:57.568Z,13.00
2022-10-25T07:41:25.957Z,13.10
2022-10-25T07:43:53.336Z,13.20
2022-10-25T07:46:20.543Z,13.30
2022-10-25T07:48:47.778Z,13.40
2022-10-25T07:51:17.240Z,13.60
2022-10-25T07:53:44.624Z,13.70
2022-10-25T07:56:20.645Z,13.80
2022-10-25T07:58:52.178Z,14.00
2022-10-25T08:01:24.474Z,14.10
2022-10-25T08:03:55.893Z,14.20
2022-10-25T08:06:24.469Z,14.30
2022-10-25T08:08:51.806Z,14.40
2022-10-25T08:11:19.408Z,14.50
2022-10-25T08:13:50.119Z,14.50
2022-10-25T08:16:17.772Z,14.70
2022-10-25T08:18:45.196Z,14.80
2022-10-25T08:21:12.657Z,14.90
2022-10-25T08:23:39.881Z,15.00
2022-10-25T08:26:07.147Z,15.00
2022-10-25T08:28:34.641Z,14.90
2022-10-25T08:31:02.085Z,14.90
2022-10-25T08:33:29.770Z,15.00
2022-10-25T08:36:00.711Z,15.00
2022-10-25T08:38:28.272Z,15.00
2022-10-25T08:41:10.573Z,15.10
2022-10-25T08:44:15.979Z,15.10
2022-10-25T08:46:52.248Z,15.20
2022-10-25T08:49:39.668Z,15.20
2022-10-25T08:52:17.366Z,15.30
2022-10-25T08:54:46.663Z,15.20
2022-10-25T08:57:32.140Z,15.20
2022-10-25T09:00:10.479Z,15.30
2022-10-25T09:02:48.082Z,15.40
2022-10-25T09:05:41.432Z,15.40
2022-10-25T09:08:15.786Z,15.40
2022-10-25T09:10:55.466Z,15.40
2022-10-25T09:13:29.627Z,15.50
2022-10-25T09:16:12.388Z,15.50
2022-10-25T09:18:57.096Z,15.50
2022-10-25T09:21:33.289Z,15.60
2022-10-25T09:24:33.998Z,15.60
2022-10-25T09:27:14.282Z,15.70
2022-10-25T09:29:56.414Z,15.70
2022-10-25T09:32:49.572Z,15.70
2022-10-25T09:35:28.470Z,15.80
2022-10-25T09:38:00.787Z,15.90
2022-10-25T09:40:39.249Z,15.90
2022-10-25T09:43:14.652Z,16.00
2022-10-25T09:46:04.682Z,16.00
2022-10-25T09:49:01.315Z,16.10
2022-10-25T09:52:12.538Z,16.10
2022-10-25T09:55:16.672Z,16.10
2022-10-25T09:57:44.128Z,16.10
2022-10-25T10:00:15.284Z,16.20
2022-10-25T10:02:42.666Z,16.20
2022-10-25T10:05:17.656Z,16.20
2022-10-25T10:07:46.885Z,16.30
2022-10-25T10:10:28.173Z,16.20
2022-10-25T10:13:22.977Z,16.20
2022-10-25T10:15:52.624Z,16.20
2022-10-25T10:18:23.748Z,16.30
2022-10-25T10:21:01.694Z,16.30
2022-10-25T10:23:38.957Z,16.20
2022-10-25T10:26:19.727Z,16.40
2022-10-25T10:28:49.624Z,16.40
2022-10-25T10:31:18.551Z,16.40
2022-10-25T10:33:50.872Z,16.50
2022-10-25T10:36:27.361Z,16.40
2022-10-25T10:39:12.527Z,16.40
2022-10-25T10:41:58.234Z,16.50
2022-10-25T10:44:25.451Z,16.60
2022-10-25T10:46:54.855Z,16.70
2022-10-25T10:49:33.608Z,16.80
2022-10-25T10:52:02.988Z,16.90
2022-10-25T10:54:46.090Z,17.10
2022-10-25T10:57:29.945Z,17.20
2022-10-25T10:59:57.972Z,17.30
2022-10-25T11:02:27.935Z,17.30
2022-10-25T11:04:56.693Z,17.50
2022-10-25T11:07:34.404Z,17.50
2022-10-25T11:10:16.819Z,17.40
2022-10-25T11:12:44.720Z,17.50
2022-10-25T11:15:13.510Z,17.50
2022-10-25T11:17:54.172Z,17.60
2022-10-25T11:20:27.722Z,17.50
2022-10-25T11:23:06.835Z,17.50
2022-10-25T11:25:51.188Z,17.40
2022-10-25T11:28:18.315Z,17.50
2022-10-25T11:31:20.890Z,17.60
2022-10-25T11:34:06.621Z,17.70
2022-10-25T11:36:54.364Z,17.80
2022-10-25T11:39:48.516Z,17.70
2022-10-25T11:42:30.932Z,17.70
2022-10-25T11:45:25.359Z,17.50
2022-10-25T11:48:04.203Z,17.60
2022-10-25T11:50:47.198Z,17.60
2022-10-25T11:54:02.273Z,17.50
2022-10-25T11:56:58.468Z,17.50
2022-10-25T11:59:41.205Z,17.40
2022-10-25T12:02:27.152Z,17.50
2022-10-25T12:05:04.918Z,17.60
2022-10-25T12:07:40.583Z,17.60
2022-10-25T12:10:25.868Z,17.60
2022-10-25T12:12:58.803Z,17.60
2022-10-25T12:15:38.047Z,17.60
2022-10-25T12:18:08.191Z,17.60
2022-10-25T12:20:37.010Z,17.60
2022-10-25T12:23:07.453Z,17.50
2022-10-25T12:25:39.286Z,17.50
2022-10-25T12:28:35.638Z,17.50
2022-10-25T12:31:16.766Z,17.60
2022-10-25T12:33:50.297Z,17.60
2022-10-25T12:36:45.015Z,17.60
2022-10-25T12:39:26.164Z,17.60
2022-10-25T12:41:59.443Z,17.60
2022-10-25T12:44:44.726Z,17.70
2022-10-25T12:47:30.617Z,17.70
2022-10-25T12:50:11.085Z,17.70
2022-10-25T12:52:42.764Z,17.70
2022-10-25T12:55:51.497Z,17.80
2022-10-25T12:58:28.198Z,17.80
2022-10-25T13:01:04.910Z,17.70
2022-10-25T13:03:59.249Z,17.70
2022-10-25T13:06:31.213Z,17.70
2022-10-25T13:09:16.169Z,17.60
2022-10-25T13:12:03.589Z,17.50
2022-10-25T13:14:43.089Z,17.50
2022-10-25T13:17:16.179Z,17.50
2022-10-25T13:20:00.542Z,17.70
2022-10-25T13:22:39.382Z,17.70
2022-10-25T13:25:13.152Z,17.90
2022-10-25T13:28:09.468Z,18.00
2022-10-25T13:30:36.875Z,18.10
2022-10-25T13:33:21.637Z,18.10
2022-10-25T13:35:49.013Z,18.20
2022-10-25T13:38:25.479Z,18.10
2022-10-25T13:41:12.267Z,18.20
2022-10-25T13:43:59.622Z,18.30
2022-10-25T13:46:48.564Z,18.30
2022-10-25T13:49:36.033Z,18.30
2022-10-25T13:52:22.692Z,18.30
2022-10-25T13:54:57.310Z,18.20
2022-10-25T13:57:54.349Z,18.20
2022-10-25T14:00:27.410Z,18.10
2022-10-25T14:03:42.917Z,18.20
2022-10-25T14:06:16.166Z,18.10
2022-10-25T14:08:50.972Z,18.20
2022-10-25T14:11:19.907Z,18.20
2022-10-25T14:14:01.887Z,18.20
2022-10-25T14:16:35.791Z,18.30
2022-10-25T14:19:09.858Z,18.30
2022-10-25T14:21:37.406Z,18.20
2022-10-25T14:24:10.638Z,18.20
2022-10-25T14:26:37.904Z,18.20
2022-10-25T14:29:17.763Z,18.20
2022-10-25T14:31:45.709Z,18.20
2022-10-25T14:34:23.636Z,18.10
2022-10-25T14:36:55.793Z,18.00
2022-10-25T14:39:28.418Z,17.90
2022-10-25T14:42:01.243Z,17.90
2022-10-25T14:44:43.918Z,17.90
2022-10-25T14:47:33.688Z,17.90
2022-10-25T14:50:02.497Z,17.90
2022-10-25T14:52:31.406Z,17.90
2022-10-25T14:55:04.835Z,18.00
2022-10-25T14:57:33.290Z,18.00
2022-10-25T15:00:03.656Z,18.00
2022-10-25T15:02:35.172Z,18.10
2022-10-25T15:05:04.193Z,18.00
2022-10-25T15:07:38.583Z,18.00
2022-10-25T15:12:38.897Z,17.90
2022-10-25T15:15:36.088Z,17.90
2022-10-25T15:18:04.110Z,17.80
2022-10-25T15:20:33.421Z,17.70
2022-10-25T15:23:14.079Z,17.70
2022-10-25T15:25:41.717Z,17.70
2022-10-25T15:28:17.451Z,17.60
2022-10-25T15:30:47.866Z,17.60
2022-10-25T15:33:20.187Z,17.60
2022-10-25T15:35:56.681Z,17.60
2022-10-25T15:38:42.054Z,17.50
2022-10-25T15:41:15.473Z,17.40
2022-10-25T15:43:42.953Z,17.30
2022-10-25T15:46:45.237Z,17.30
2022-10-25T15:49:13.556Z,17.20
2022-10-25T15:51:43.482Z,17.00
2022-10-25T15:54:15.856Z,16.90
2022-10-25T15:56:43.817Z,16.80
2022-10-25T15:59:12.161Z,16.70
2022-10-25T16:01:43.608Z,16.60
2022-10-25T16:04:15.465Z,16.40
2022-10-25T16:06:43.998Z,16.30
2022-10-25T16:09:11.909Z,16.20
2022-10-25T16:11:43.685Z,16.10
2022-10-25T16:14:25.251Z,15.90
2022-10-25T16:16:52.827Z,15.70
2022-10-25T16:19:21.443Z,15.70
2022-10-25T16:21:49.052Z,15.60
2022-10-25T16:24:16.450Z,15.50
2022-10-25T16:26:48.232Z,15.40
2022-10-25T16:29:24.728Z,15.30
2022-10-25T16:31:52.780Z,15.10
2022-10-25T16:34:20.047Z,15.10
2022-10-25T16:36:49.044Z,15.00
2022-10-25T16:39:16.723Z,14.90
2022-10-25T16:41:45.862Z,14.80
2022-10-25T16:44:18.181Z,14.80
2022-10-25T16:46:45.466Z,14.70
2022-10-25T16:49:13.207Z,14.60
2022-10-25T16:51:41.584Z,14.60
2022-10-25T16:54:10.476Z,14.40
2022-10-25T16:56:37.631Z,14.40
2022-10-25T16:59:04.782Z,14.30
2022-10-25T17:01:34.759Z,14.20
2022-10-25T17:04:05.064Z,14.10
2022-10-25T17:06:47.740Z,14.00
2022-10-25T17:09:16.588Z,14.00
2022-10-25T17:11:44.839Z,13.90
2022-10-25T17:14:12.756Z,13.90
2022-10-25T17:16:42.391Z,13.90
2022-10-25T17:19:10.639Z,13.80
2022-10-25T17:21:38.784Z,13.70
2022-10-25T17:24:08.378Z,13.70
2022-10-25T17:26:36.505Z,13.60
2022-10-25T17:29:04.249Z,13.50
2022-10-25T17:31:32.716Z,13.50
2022-10-25T17:34:00.996Z,13.40
2022-10-25T17:36:29.174Z,13.40
2022-10-25T17:38:56.455Z,13.30
2022-10-25T17:41:23.626Z,13.20
2022-10-25T17:43:53.220Z,13.20
2022-10-25T17:46:29.379Z,13.20
2022-10-25T17:49:03.033Z,13.20
2022-10-25T17:51:32.037Z,13.10
2022-10-25T17:53:59.252Z,13.10
2022-10-25T17:56:27.913Z,13.00
2022-10-25T17:58:55.967Z,12.90
2022-10-25T18:01:25.442Z,12.90
2022-10-25T18:03:54.694Z,12.90
2022-10-25T18:06:24.455Z,12.90
2022-10-25T18:08:53.448Z,12.90
2022-10-25T18:11:23.181Z,12.90
2022-10-25T18:13:52.405Z,12.90
2022-10-25T18:16:21.956Z,12.80
2022-10-25T18:18:49.213Z,12.80
2022-10-25T18:21:16.961Z,12.60
2022-10-25T18:23:44.400Z,12.60
2022-10-25T18:26:13.143Z,12.60
2022-10-25T18:28:40.291Z,12.50
2022-10-25T18:31:12.979Z,12.50
2022-10-25T18:33:42.555Z,12.50
2022-10-25T18:36:15.832Z,12.40
2022-10-25T18:38:43.319Z,12.50
2022-10-25T18:41:14.242Z,12.40
2022-10-25T18:43:41.672Z,12.40
2022-10-25T18:46:09.148Z,12.40
2022-10-25T18:48:36.324Z,12.30
2022-10-25T18:51:09.726Z,12.30
2022-10-25T18:53:39.316Z,12.20
2022-10-25T18:56:11.207Z,12.20
2022-10-25T18:58:38.913Z,12.20
2022-10-25T19:01:11.083Z,12.20
2022-10-25T19:03:39.090Z,12.10
2022-10-25T19:06:07.652Z,12.10
2022-10-25T19:08:35.899Z,12.10
2022-10-25T19:11:08.852Z,12.20
2022-10-25T19:13:36.444Z,12.00
2022-10-25T19:16:04.005Z,12.00
2022-10-25T19:18:32.861Z,11.90
2022-10-25T19:21:09.648Z,11.90
2022-10-25T19:23:39.517Z,11.90
2022-10-25T19:26:09.167Z,11.80
2022-10-25T19:28:36.951Z,11.80
2022-10-25T19:31:13.037Z,11.70
2022-10-25T19:33:44.583Z,11.70
2022-10-25T19:36:12.134Z,11.70
2022-10-25T19:38:40.392Z,11.70
2022-10-25T19:41:10.388Z,11.70
2022-10-25T19:43:37.999Z,11.70
2022-10-25T19:46:07.261Z,11.70
2022-10-25T19:48:35.234Z,11.60
2022-10-25T19:51:13.953Z,11.60
2022-10-25T19:53:41.840Z,11.60
2022-10-25T19:56:15.218Z,11.60
2022-10-25T19:58:42.830Z,11.60
2022-10-25T20:01:13.884Z,11.60
2022-10-25T20:03:42.920Z,11.50
2022-10-25T20:06:13.109Z,11.50
2022-10-25T20:08:41.157Z,11.60
2022-10-25T20:11:10.782Z,11.50
2022-10-25T20:13:38.489Z,11.50
2022-10-25T20:16:06.982Z,11.50
2022-10-25T20:18:38.785Z,11.40
2022-10-25T20:21:07.891Z,11.40
2022-10-25T20:23:35.635Z,11.30
2022-10-25T20:26:17.707Z,11.30
2022-10-25T20:28:44.968Z,11.20
2022-10-25T20:31:13.146Z,11.20
2022-10-25T20:33:40.413Z,11.20
2022-10-25T20:36:09.141Z,11.20
2022-10-25T20:38:37.745Z,11.20
2022-10-25T20:41:10.995Z,11.20
2022-10-25T20:43:39.068Z,11.20
2022-10-25T20:46:07.446Z,11.20
2022-10-25T20:48:35.298Z,11.20
2022-10-25T20:51:05.345Z,11.10
2022-10-25T20:53:35.999Z,11.20
2022-10-25T20:56:03.309Z,11.20
2022-10-25T20:58:30.444Z,11.20
2022-10-25T21:00:57.855Z,11.10
2022-10-25T21:03:26.714Z,11.20
2022-10-25T21:05:59.028Z,11.10
2022-10-25T21:08:26.801Z,11.10
2022-10-25T21:10:55.836Z,11.10
2022-10-25T21:13:24.368Z,11.10
2022-10-25T21:15:52.284Z,11.00
2022-10-25T21:18:20.031Z,11.10
2022-10-25T21:20:48.637Z,11.00
2022-10-25T21:23:15.801Z,11.00
2022-10-25T21:25:42.948Z,11.00
2022-10-25T21:28:10.241Z,11.00
2022-10-25T21:30:37.392Z,10.90
2022-10-25T21:33:04.812Z,11.00
2022-10-25T21:35:32.727Z,11.00
2022-10-25T21:37:59.919Z,10.90
2022-10-25T21:40:27.069Z,10.90
2022-10-25T21:42:57.589Z,10.90
2022-10-25T21:45:24.721Z,10.80
2022-10-25T21:47:52.290Z,10.80
2022-10-25T21:50:19.506Z,10.70
2022-10-25T21:52:46.808Z,10.70
2022-10-25T21:55:14.291Z,10.70
2022-10-25T21:57:41.621Z,10.70
2022-10-25T22:00:11.135Z,10.60
2022-10-25T22:02:41.213Z,10.60
2022-10-25T22:05:08.662Z,10.70
2022-10-25T22:07:35.893Z,10.60
2022-10-25T22:10:03.240Z,10.50
2022-10-25T22:12:30.601Z,10.60
2022-10-25T22:14:57.839Z,10.50
2022-10-25T22:17:25.284Z,10.50
2022-10-25T22:19:52.497Z,10.50
2022-10-25T22:22:19.672Z,10.50
2022-10-25T22:24:46.809Z,10.50
2022-10-25T22:27:14.095Z,10.40
2022-10-25T22:29:41.688Z,10.40
2022-10-25T22:32:08.839Z,10.30
2022-10-25T22:34:35.962Z,10.40
2022-10-25T22:37:03.478Z,10.30
2022-10-25T22:39:30.748Z,10.20
2022-10-25T22:41:58.383Z,10.40
2022-10-25T22:44:25.748Z,10.30
2022-10-25T22:46:53.036Z,10.20
2022-10-25T22:49:21.813Z,10.30
2022-10-25T22:51:49.152Z,10.20
2022-10-25T22:54:16.504Z,10.20
2022-10-25T22:56:43.692Z,10.20
2022-10-25T22:59:11.749Z,10.20
2022-10-25T23:01:39.682Z,10.20
2022-10-25T23:04:09.285Z,10.30
2022-10-25T23:06:39.682Z,10.30
2022-10-25T23:09:09.172Z,10.30
2022-10-25T23:11:39.127Z,10.20
2022-10-25T23:14:13.338Z,10.30
2022-10-25T23:16:43.821Z,10.30
2022-10-25T23:19:10.971Z,10.30
2022-10-25T23:21:38.231Z,10.30
2022-10-25T23:24:06.029Z,10.30
2022-10-25T23:26:36.281Z,10.40
2022-10-25T23:29:04.007Z,10.40
2022-10-25T23:31:31.600Z,10.50
2022-10-25T23:34:00.447Z,10.40
2022-10-25T23:36:30.539Z,10.40
2022-10-25T23:38:58.239Z,10.40
2022-10-25T23:41:27.027Z,10.40
2022-10-25T23:43:54.796Z,10.50
2022-10-25T23:46:22.368Z,10.50
2022-10-25T23:48:49.728Z,10.50
2022-10-25T23:51:18.368Z,10.50
2022-10-25T23:53:45.667Z,10.50
2022-10-25T23:56:13.908Z,10.50
2022-10-25T23:58:41.680Z,10.50
